sensor_id;sensor_type;location;lat;lon;timestamp;temperature;humidity
5130;DHT22;2583;50.946;6.954;2023-05-29T00:00:49;17.10;77.70
5130;DHT22;2583;50.946;6.954;2023-05-29T00:03:16;17.10;78.80
5130;DHT22;2583;50.946;6.954;2023-05-29T00:05:44;17.00;81.00
5130;DHT22;2583;50.946;6.954;2023-05-29T00:08:11;17.00;82.30
5130;DHT22;2583;50.946;6.954;2023-05-29T00:10:37;17.00;83.10
5130;DHT22;2583;50.946;6.954;2023-05-29T00:13:04;16.90;84.60
5130;DHT22;2583;50.946;6.954;2023-05-29T00:15:33;16.90;86.00
5130;DHT22;2583;50.946;6.954;2023-05-29T00:18:00;16.90;85.80
5130;DHT22;2583;50.946;6.954;2023-05-29T00:20:28;16.90;85.70
5130;DHT22;2583;50.946;6.954;2023-05-29T00:22:55;16.80;86.30
5130;DHT22;2583;50.946;6.954;2023-05-29T00:25:22;16.80;86.60
5130;DHT22;2583;50.946;6.954;2023-05-29T00:27:48;16.80;87.70
5130;DHT22;2583;50.946;6.954;2023-05-29T00:30:16;16.70;88.10
5130;DHT22;2583;50.946;6.954;2023-05-29T00:32:42;16.70;88.20
5130;DHT22;2583;50.946;6.954;2023-05-29T00:35:09;16.60;88.40
5130;DHT22;2583;50.946;6.954;2023-05-29T00:37:37;16.70;88.20
5130;DHT22;2583;50.946;6.954;2023-05-29T00:40:04;16.60;89.30
5130;DHT22;2583;50.946;6.954;2023-05-29T00:42:31;16.50;90.20
5130;DHT22;2583;50.946;6.954;2023-05-29T00:44:57;16.50;90.00
5130;DHT22;2583;50.946;6.954;2023-05-29T00:47:25;16.50;90.10
5130;DHT22;2583;50.946;6.954;2023-05-29T00:49:53;16.50;90.40
5130;DHT22;2583;50.946;6.954;2023-05-29T00:52:21;16.40;90.50
5130;DHT22;2583;50.946;6.954;2023-05-29T00:54:48;16.40;90.70
5130;DHT22;2583;50.946;6.954;2023-05-29T00:57:15;16.40;90.80
5130;DHT22;2583;50.946;6.954;2023-05-29T00:59:44;16.40;91.00
5130;DHT22;2583;50.946;6.954;2023-05-29T01:02:12;16.30;91.10
5130;DHT22;2583;50.946;6.954;2023-05-29T01:04:40;16.30;91.30
5130;DHT22;2583;50.946;6.954;2023-05-29T01:07:07;16.30;91.50
5130;DHT22;2583;50.946;6.954;2023-05-29T01:09:36;16.30;91.50
5130;DHT22;2583;50.946;6.954;2023-05-29T01:12:08;16.20;92.00
5130;DHT22;2583;50.946;6.954;2023-05-29T01:14:59;16.20;91.90
5130;DHT22;2583;50.946;6.954;2023-05-29T01:20:40;16.10;92.20
5130;DHT22;2583;50.946;6.954;2023-05-29T01:23:23;16.00;92.50
5130;DHT22;2583;50.946;6.954;2023-05-29T01:28:41;16.00;92.70
5130;DHT22;2583;50.946;6.954;2023-05-29T01:31:10;15.90;93.10
5130;DHT22;2583;50.946;6.954;2023-05-29T01:33:40;15.90;93.20
5130;DHT22;2583;50.946;6.954;2023-05-29T01:36:08;15.90;93.00
5130;DHT22;2583;50.946;6.954;2023-05-29T01:38:35;15.90;93.50
5130;DHT22;2583;50.946;6.954;2023-05-29T01:41:03;15.80;93.40
5130;DHT22;2583;50.946;6.954;2023-05-29T01:43:30;15.80;93.30
5130;DHT22;2583;50.946;6.954;2023-05-29T01:45:57;15.70;92.90
5130;DHT22;2583;50.946;6.954;2023-05-29T01:48:24;15.60;92.60
5130;DHT22;2583;50.946;6.954;2023-05-29T01:50:52;15.60;93.00
5130;DHT22;2583;50.946;6.954;2023-05-29T01:53:19;15.60;93.40
5130;DHT22;2583;50.946;6.954;2023-05-29T01:55:46;15.60;93.50
5130;DHT22;2583;50.946;6.954;2023-05-29T01:58:14;15.50;93.80
5130;DHT22;2583;50.946;6.954;2023-05-29T02:00:42;15.50;93.90
5130;DHT22;2583;50.946;6.954;2023-05-29T02:03:09;15.50;93.20
5130;DHT22;2583;50.946;6.954;2023-05-29T02:05:39;15.30;93.50
5130;DHT22;2583;50.946;6.954;2023-05-29T02:08:06;15.30;93.30
5130;DHT22;2583;50.946;6.954;2023-05-29T02:10:32;15.30;93.00
5130;DHT22;2583;50.946;6.954;2023-05-29T02:12:59;15.20;92.60
5130;DHT22;2583;50.946;6.954;2023-05-29T02:15:26;15.20;92.70
5130;DHT22;2583;50.946;6.954;2023-05-29T02:17:53;15.10;91.90
5130;DHT22;2583;50.946;6.954;2023-05-29T02:20:19;15.00;92.10
5130;DHT22;2583;50.946;6.954;2023-05-29T02:22:46;15.00;92.20
5130;DHT22;2583;50.946;6.954;2023-05-29T02:25:13;15.00;92.30
5130;DHT22;2583;50.946;6.954;2023-05-29T02:27:40;15.00;92.70
5130;DHT22;2583;50.946;6.954;2023-05-29T02:30:07;14.90;92.90
5130;DHT22;2583;50.946;6.954;2023-05-29T02:32:34;14.90;93.30
5130;DHT22;2583;50.946;6.954;2023-05-29T02:35:02;14.80;93.70
5130;DHT22;2583;50.946;6.954;2023-05-29T02:37:29;14.70;94.00
5130;DHT22;2583;50.946;6.954;2023-05-29T02:39:56;14.70;94.30
5130;DHT22;2583;50.946;6.954;2023-05-29T02:42:22;14.60;94.60
5130;DHT22;2583;50.946;6.954;2023-05-29T02:44:49;14.60;95.20
5130;DHT22;2583;50.946;6.954;2023-05-29T02:47:16;14.50;95.00
5130;DHT22;2583;50.946;6.954;2023-05-29T02:49:43;14.40;95.60
5130;DHT22;2583;50.946;6.954;2023-05-29T02:52:10;14.40;96.40
5130;DHT22;2583;50.946;6.954;2023-05-29T02:54:36;14.30;96.40
5130;DHT22;2583;50.946;6.954;2023-05-29T02:57:03;14.30;97.00
5130;DHT22;2583;50.946;6.954;2023-05-29T02:59:31;14.30;97.60
5130;DHT22;2583;50.946;6.954;2023-05-29T03:01:58;14.20;97.60
5130;DHT22;2583;50.946;6.954;2023-05-29T03:04:26;14.10;97.60
5130;DHT22;2583;50.946;6.954;2023-05-29T03:06:53;14.10;98.20
5130;DHT22;2583;50.946;6.954;2023-05-29T03:09:20;14.10;98.40
5130;DHT22;2583;50.946;6.954;2023-05-29T03:11:47;14.10;98.70
5130;DHT22;2583;50.946;6.954;2023-05-29T03:14:16;14.00;98.80
5130;DHT22;2583;50.946;6.954;2023-05-29T03:16:44;13.90;99.30
5130;DHT22;2583;50.946;6.954;2023-05-29T03:19:10;13.80;99.90
5130;DHT22;2583;50.946;6.954;2023-05-29T03:21:37;13.80;99.90
5130;DHT22;2583;50.946;6.954;2023-05-29T03:24:04;13.90;99.90
5130;DHT22;2583;50.946;6.954;2023-05-29T03:26:31;13.90;99.90
5130;DHT22;2583;50.946;6.954;2023-05-29T03:28:58;13.80;99.90
5130;DHT22;2583;50.946;6.954;2023-05-29T03:31:25;13.80;99.90
5130;DHT22;2583;50.946;6.954;2023-05-29T03:33:52;13.80;99.90
5130;DHT22;2583;50.946;6.954;2023-05-29T03:36:19;13.70;99.90
5130;DHT22;2583;50.946;6.954;2023-05-29T03:38:45;13.70;99.90
5130;DHT22;2583;50.946;6.954;2023-05-29T03:41:12;13.60;99.90
5130;DHT22;2583;50.946;6.954;2023-05-29T03:43:39;13.60;99.90
5130;DHT22;2583;50.946;6.954;2023-05-29T03:46:06;13.50;99.90
5130;DHT22;2583;50.946;6.954;2023-05-29T03:48:32;13.50;99.90
5130;DHT22;2583;50.946;6.954;2023-05-29T03:50:59;13.40;99.90
5130;DHT22;2583;50.946;6.954;2023-05-29T03:53:26;13.40;99.90
5130;DHT22;2583;50.946;6.954;2023-05-29T03:55:52;13.50;99.90
5130;DHT22;2583;50.946;6.954;2023-05-29T03:58:20;13.40;99.90
5130;DHT22;2583;50.946;6.954;2023-05-29T04:00:46;13.30;99.90
5130;DHT22;2583;50.946;6.954;2023-05-29T04:03:13;13.30;99.90
5130;DHT22;2583;50.946;6.954;2023-05-29T04:05:40;13.40;99.90
5130;DHT22;2583;50.946;6.954;2023-05-29T04:08:07;13.30;99.90
5130;DHT22;2583;50.946;6.954;2023-05-29T04:10:40;13.30;99.90
5130;DHT22;2583;50.946;6.954;2023-05-29T04:13:06;13.20;99.90
5130;DHT22;2583;50.946;6.954;2023-05-29T04:15:33;13.10;99.90
5130;DHT22;2583;50.946;6.954;2023-05-29T04:18:01;13.10;99.90
5130;DHT22;2583;50.946;6.954;2023-05-29T04:20:27;13.10;99.90
5130;DHT22;2583;50.946;6.954;2023-05-29T04:22:54;13.10;99.90
5130;DHT22;2583;50.946;6.954;2023-05-29T04:25:21;13.00;99.90
5130;DHT22;2583;50.946;6.954;2023-05-29T04:27:48;13.00;99.90
5130;DHT22;2583;50.946;6.954;2023-05-29T04:30:15;13.00;99.90
5130;DHT22;2583;50.946;6.954;2023-05-29T04:32:45;13.00;99.90
5130;DHT22;2583;50.946;6.954;2023-05-29T04:35:13;13.10;99.90
5130;DHT22;2583;50.946;6.954;2023-05-29T04:37:40;13.10;99.90
5130;DHT22;2583;50.946;6.954;2023-05-29T04:40:07;13.10;99.90
5130;DHT22;2583;50.946;6.954;2023-05-29T04:42:38;13.10;99.90
5130;DHT22;2583;50.946;6.954;2023-05-29T04:45:08;13.10;99.90
5130;DHT22;2583;50.946;6.954;2023-05-29T04:47:37;13.10;99.90
5130;DHT22;2583;50.946;6.954;2023-05-29T04:50:13;13.10;99.90
5130;DHT22;2583;50.946;6.954;2023-05-29T04:52:40;13.10;99.90
5130;DHT22;2583;50.946;6.954;2023-05-29T04:55:07;13.00;99.90
5130;DHT22;2583;50.946;6.954;2023-05-29T04:57:33;13.10;99.90
5130;DHT22;2583;50.946;6.954;2023-05-29T05:00:00;13.10;99.90
5130;DHT22;2583;50.946;6.954;2023-05-29T05:02:27;13.10;99.90
5130;DHT22;2583;50.946;6.954;2023-05-29T05:04:54;13.10;99.90
5130;DHT22;2583;50.946;6.954;2023-05-29T05:07:21;13.10;99.90
5130;DHT22;2583;50.946;6.954;2023-05-29T05:09:48;13.10;99.90
5130;DHT22;2583;50.946;6.954;2023-05-29T05:12:15;13.10;99.90
5130;DHT22;2583;50.946;6.954;2023-05-29T05:14:41;13.20;99.90
5130;DHT22;2583;50.946;6.954;2023-05-29T05:17:08;13.20;99.90
5130;DHT22;2583;50.946;6.954;2023-05-29T05:19:35;13.40;99.90
5130;DHT22;2583;50.946;6.954;2023-05-29T05:22:01;13.40;99.90
5130;DHT22;2583;50.946;6.954;2023-05-29T05:24:28;13.40;99.90
5130;DHT22;2583;50.946;6.954;2023-05-29T05:26:55;13.50;99.90
5130;DHT22;2583;50.946;6.954;2023-05-29T05:29:21;13.60;99.90
5130;DHT22;2583;50.946;6.954;2023-05-29T05:31:48;13.60;99.90
5130;DHT22;2583;50.946;6.954;2023-05-29T05:34:15;13.50;99.90
5130;DHT22;2583;50.946;6.954;2023-05-29T05:36:42;13.50;99.90
5130;DHT22;2583;50.946;6.954;2023-05-29T05:39:08;13.60;99.90
5130;DHT22;2583;50.946;6.954;2023-05-29T05:41:35;13.60;99.90
5130;DHT22;2583;50.946;6.954;2023-05-29T05:44:02;13.60;99.90
5130;DHT22;2583;50.946;6.954;2023-05-29T05:46:29;13.50;99.90
5130;DHT22;2583;50.946;6.954;2023-05-29T05:48:55;13.60;99.90
5130;DHT22;2583;50.946;6.954;2023-05-29T05:51:24;13.60;99.90
5130;DHT22;2583;50.946;6.954;2023-05-29T05:53:51;13.70;99.90
5130;DHT22;2583;50.946;6.954;2023-05-29T05:56:18;13.70;99.90
5130;DHT22;2583;50.946;6.954;2023-05-29T05:58:44;13.70;99.90
5130;DHT22;2583;50.946;6.954;2023-05-29T06:01:11;13.80;99.90
5130;DHT22;2583;50.946;6.954;2023-05-29T06:03:38;14.00;99.90
5130;DHT22;2583;50.946;6.954;2023-05-29T06:06:05;13.90;99.90
5130;DHT22;2583;50.946;6.954;2023-05-29T06:08:33;14.00;99.90
5130;DHT22;2583;50.946;6.954;2023-05-29T06:11:00;14.00;99.90
5130;DHT22;2583;50.946;6.954;2023-05-29T06:13:26;14.10;99.90
5130;DHT22;2583;50.946;6.954;2023-05-29T06:15:53;14.20;99.90
5130;DHT22;2583;50.946;6.954;2023-05-29T06:18:20;14.20;99.90
5130;DHT22;2583;50.946;6.954;2023-05-29T06:20:47;14.30;99.90
5130;DHT22;2583;50.946;6.954;2023-05-29T06:23:14;14.30;99.40
5130;DHT22;2583;50.946;6.954;2023-05-29T06:25:41;14.30;98.80
5130;DHT22;2583;50.946;6.954;2023-05-29T06:28:08;14.40;97.90
5130;DHT22;2583;50.946;6.954;2023-05-29T06:30:35;14.40;97.90
5130;DHT22;2583;50.946;6.954;2023-05-29T06:33:02;14.40;97.90
5130;DHT22;2583;50.946;6.954;2023-05-29T06:35:29;14.50;97.90
5130;DHT22;2583;50.946;6.954;2023-05-29T06:37:55;14.50;96.80
5130;DHT22;2583;50.946;6.954;2023-05-29T06:40:22;14.60;96.30
5130;DHT22;2583;50.946;6.954;2023-05-29T06:42:49;14.40;96.00
5130;DHT22;2583;50.946;6.954;2023-05-29T06:45:16;14.50;96.10
5130;DHT22;2583;50.946;6.954;2023-05-29T06:47:42;14.50;95.80
5130;DHT22;2583;50.946;6.954;2023-05-29T06:50:10;14.70;95.30
5130;DHT22;2583;50.946;6.954;2023-05-29T06:52:36;14.80;94.20
5130;DHT22;2583;50.946;6.954;2023-05-29T06:55:04;14.90;94.10
5130;DHT22;2583;50.946;6.954;2023-05-29T06:57:30;15.00;93.10
5130;DHT22;2583;50.946;6.954;2023-05-29T06:59:57;15.00;93.00
5130;DHT22;2583;50.946;6.954;2023-05-29T07:02:24;15.20;92.60
5130;DHT22;2583;50.946;6.954;2023-05-29T07:04:51;15.30;92.00
5130;DHT22;2583;50.946;6.954;2023-05-29T07:07:18;15.50;90.70
5130;DHT22;2583;50.946;6.954;2023-05-29T07:09:44;15.40;89.00
5130;DHT22;2583;50.946;6.954;2023-05-29T07:12:11;15.40;90.40
5130;DHT22;2583;50.946;6.954;2023-05-29T07:14:38;15.50;90.30
5130;DHT22;2583;50.946;6.954;2023-05-29T07:17:05;15.60;87.20
5130;DHT22;2583;50.946;6.954;2023-05-29T07:19:32;15.60;86.50
5130;DHT22;2583;50.946;6.954;2023-05-29T07:22:00;15.60;86.60
5130;DHT22;2583;50.946;6.954;2023-05-29T07:24:27;15.60;86.70
5130;DHT22;2583;50.946;6.954;2023-05-29T07:26:54;15.70;86.40
5130;DHT22;2583;50.946;6.954;2023-05-29T07:29:22;15.80;85.00
5130;DHT22;2583;50.946;6.954;2023-05-29T07:31:50;15.90;85.10
5130;DHT22;2583;50.946;6.954;2023-05-29T07:34:17;16.10;82.00
5130;DHT22;2583;50.946;6.954;2023-05-29T07:37:04;16.00;82.00
5130;DHT22;2583;50.946;6.954;2023-05-29T07:39:32;16.00;79.30
5130;DHT22;2583;50.946;6.954;2023-05-29T07:42:00;16.10;78.30
5130;DHT22;2583;50.946;6.954;2023-05-29T07:44:27;16.30;77.40
5130;DHT22;2583;50.946;6.954;2023-05-29T07:46:54;16.40;73.90
5130;DHT22;2583;50.946;6.954;2023-05-29T07:49:21;16.60;72.10
5130;DHT22;2583;50.946;6.954;2023-05-29T07:51:48;16.60;70.80
5130;DHT22;2583;50.946;6.954;2023-05-29T07:54:15;16.70;68.00
5130;DHT22;2583;50.946;6.954;2023-05-29T07:56:44;16.70;67.60
5130;DHT22;2583;50.946;6.954;2023-05-29T07:59:12;16.70;68.90
5130;DHT22;2583;50.946;6.954;2023-05-29T08:01:39;16.90;66.20
5130;DHT22;2583;50.946;6.954;2023-05-29T08:04:07;17.00;64.90
5130;DHT22;2583;50.946;6.954;2023-05-29T08:06:34;16.90;61.80
5130;DHT22;2583;50.946;6.954;2023-05-29T08:09:02;16.90;63.00
5130;DHT22;2583;50.946;6.954;2023-05-29T08:11:29;17.10;60.70
5130;DHT22;2583;50.946;6.954;2023-05-29T08:13:56;17.20;59.70
5130;DHT22;2583;50.946;6.954;2023-05-29T08:16:23;17.20;57.80
5130;DHT22;2583;50.946;6.954;2023-05-29T08:18:49;17.30;59.10
5130;DHT22;2583;50.946;6.954;2023-05-29T08:21:17;17.50;56.70
5130;DHT22;2583;50.946;6.954;2023-05-29T08:23:44;17.70;55.20
5130;DHT22;2583;50.946;6.954;2023-05-29T08:26:11;17.60;53.30
5130;DHT22;2583;50.946;6.954;2023-05-29T08:28:39;17.40;53.10
5130;DHT22;2583;50.946;6.954;2023-05-29T08:31:08;17.60;52.60
5130;DHT22;2583;50.946;6.954;2023-05-29T08:33:35;17.70;53.00
5130;DHT22;2583;50.946;6.954;2023-05-29T08:36:03;17.80;51.30
5130;DHT22;2583;50.946;6.954;2023-05-29T08:38:30;18.00;51.30
5130;DHT22;2583;50.946;6.954;2023-05-29T08:40:57;18.10;48.80
5130;DHT22;2583;50.946;6.954;2023-05-29T08:43:34;18.20;48.30
5130;DHT22;2583;50.946;6.954;2023-05-29T08:46:02;18.10;48.20
5130;DHT22;2583;50.946;6.954;2023-05-29T08:48:30;18.00;47.60
5130;DHT22;2583;50.946;6.954;2023-05-29T08:50:58;18.20;47.40
5130;DHT22;2583;50.946;6.954;2023-05-29T08:53:25;18.10;46.50
5130;DHT22;2583;50.946;6.954;2023-05-29T08:55:52;18.10;47.10
5130;DHT22;2583;50.946;6.954;2023-05-29T08:58:20;18.10;47.30
5130;DHT22;2583;50.946;6.954;2023-05-29T09:00:50;18.40;46.20
5130;DHT22;2583;50.946;6.954;2023-05-29T09:03:18;18.50;45.30
5130;DHT22;2583;50.946;6.954;2023-05-29T09:05:48;18.70;44.60
5130;DHT22;2583;50.946;6.954;2023-05-29T09:08:15;18.80;42.90
5130;DHT22;2583;50.946;6.954;2023-05-29T09:10:43;18.70;44.10
5130;DHT22;2583;50.946;6.954;2023-05-29T09:13:10;18.50;43.60
5130;DHT22;2583;50.946;6.954;2023-05-29T09:15:41;18.60;44.00
5130;DHT22;2583;50.946;6.954;2023-05-29T09:18:10;18.90;43.80
5130;DHT22;2583;50.946;6.954;2023-05-29T09:20:38;19.00;40.90
5130;DHT22;2583;50.946;6.954;2023-05-29T09:23:07;19.00;40.50
5130;DHT22;2583;50.946;6.954;2023-05-29T09:25:36;19.10;40.80
5130;DHT22;2583;50.946;6.954;2023-05-29T09:28:06;19.00;39.90
5130;DHT22;2583;50.946;6.954;2023-05-29T09:30:35;19.10;40.10
5130;DHT22;2583;50.946;6.954;2023-05-29T09:33:03;19.20;39.50
5130;DHT22;2583;50.946;6.954;2023-05-29T09:35:37;19.30;39.20
5130;DHT22;2583;50.946;6.954;2023-05-29T09:38:05;19.50;37.90
5130;DHT22;2583;50.946;6.954;2023-05-29T09:40:34;19.50;36.90
5130;DHT22;2583;50.946;6.954;2023-05-29T09:43:03;19.40;35.60
5130;DHT22;2583;50.946;6.954;2023-05-29T09:45:31;19.50;36.30
5130;DHT22;2583;50.946;6.954;2023-05-29T09:47:58;19.40;36.50
5130;DHT22;2583;50.946;6.954;2023-05-29T09:50:25;19.40;36.50
5130;DHT22;2583;50.946;6.954;2023-05-29T09:52:52;19.40;37.10
5130;DHT22;2583;50.946;6.954;2023-05-29T09:55:20;19.50;36.20
5130;DHT22;2583;50.946;6.954;2023-05-29T09:57:47;19.60;36.80
5130;DHT22;2583;50.946;6.954;2023-05-29T10:00:18;19.80;35.50
5130;DHT22;2583;50.946;6.954;2023-05-29T10:02:46;20.10;34.20
5130;DHT22;2583;50.946;6.954;2023-05-29T10:05:13;20.20;33.60
5130;DHT22;2583;50.946;6.954;2023-05-29T10:07:47;20.30;33.70
5130;DHT22;2583;50.946;6.954;2023-05-29T10:10:16;20.10;33.80
5130;DHT22;2583;50.946;6.954;2023-05-29T10:12:48;20.10;34.00
5130;DHT22;2583;50.946;6.954;2023-05-29T10:15:16;20.10;33.60
5130;DHT22;2583;50.946;6.954;2023-05-29T10:17:57;20.30;33.70
5130;DHT22;2583;50.946;6.954;2023-05-29T10:20:26;20.30;33.30
5130;DHT22;2583;50.946;6.954;2023-05-29T10:22:56;20.40;33.00
5130;DHT22;2583;50.946;6.954;2023-05-29T10:25:27;20.40;32.70
5130;DHT22;2583;50.946;6.954;2023-05-29T10:27:56;20.40;32.20
5130;DHT22;2583;50.946;6.954;2023-05-29T10:30:37;20.40;31.70
5130;DHT22;2583;50.946;6.954;2023-05-29T10:36:13;20.30;32.50
5130;DHT22;2583;50.946;6.954;2023-05-29T10:38:42;20.40;32.20
5130;DHT22;2583;50.946;6.954;2023-05-29T10:41:40;20.50;31.70
5130;DHT22;2583;50.946;6.954;2023-05-29T10:47:01;20.40;32.10
5130;DHT22;2583;50.946;6.954;2023-05-29T10:49:29;20.50;31.00
5130;DHT22;2583;50.946;6.954;2023-05-29T10:51:57;20.60;30.90
5130;DHT22;2583;50.946;6.954;2023-05-29T10:54:25;20.60;30.80
5130;DHT22;2583;50.946;6.954;2023-05-29T10:56:55;20.50;31.00
5130;DHT22;2583;50.946;6.954;2023-05-29T10:59:23;20.40;30.30
5130;DHT22;2583;50.946;6.954;2023-05-29T11:01:54;20.50;31.10
5130;DHT22;2583;50.946;6.954;2023-05-29T11:06:48;20.70;30.00
5130;DHT22;2583;50.946;6.954;2023-05-29T11:09:34;20.80;29.90
5130;DHT22;2583;50.946;6.954;2023-05-29T11:12:24;20.50;29.90
5130;DHT22;2583;50.946;6.954;2023-05-29T11:15:08;20.60;30.00
5130;DHT22;2583;50.946;6.954;2023-05-29T11:20:08;20.80;29.40
5130;DHT22;2583;50.946;6.954;2023-05-29T11:25:15;21.00;28.60
5130;DHT22;2583;50.946;6.954;2023-05-29T11:27:44;20.90;28.10
5130;DHT22;2583;50.946;6.954;2023-05-29T11:30:11;20.90;28.10
5130;DHT22;2583;50.946;6.954;2023-05-29T11:32:39;20.90;28.40
5130;DHT22;2583;50.946;6.954;2023-05-29T11:35:10;21.20;28.40
5130;DHT22;2583;50.946;6.954;2023-05-29T11:37:43;21.60;28.00
5130;DHT22;2583;50.946;6.954;2023-05-29T11:40:12;21.80;27.00
5130;DHT22;2583;50.946;6.954;2023-05-29T11:42:44;21.70;26.70
5130;DHT22;2583;50.946;6.954;2023-05-29T11:45:19;21.60;26.40
5130;DHT22;2583;50.946;6.954;2023-05-29T11:47:57;21.70;26.40
5130;DHT22;2583;50.946;6.954;2023-05-29T11:50:28;21.70;25.60
5130;DHT22;2583;50.946;6.954;2023-05-29T11:52:56;21.50;25.90
5130;DHT22;2583;50.946;6.954;2023-05-29T11:55:24;21.70;26.30
5130;DHT22;2583;50.946;6.954;2023-05-29T11:57:59;22.00;26.20
5130;DHT22;2583;50.946;6.954;2023-05-29T12:00:30;22.40;25.10
5130;DHT22;2583;50.946;6.954;2023-05-29T12:02:59;22.50;24.20
5130;DHT22;2583;50.946;6.954;2023-05-29T12:05:52;22.50;23.80
5130;DHT22;2583;50.946;6.954;2023-05-29T12:08:22;22.30;23.80
5130;DHT22;2583;50.946;6.954;2023-05-29T12:10:52;22.70;23.60
5130;DHT22;2583;50.946;6.954;2023-05-29T12:13:20;22.60;23.10
5130;DHT22;2583;50.946;6.954;2023-05-29T12:15:48;22.60;22.70
5130;DHT22;2583;50.946;6.954;2023-05-29T12:18:16;22.70;22.60
5130;DHT22;2583;50.946;6.954;2023-05-29T12:20:43;22.90;22.10
5130;DHT22;2583;50.946;6.954;2023-05-29T12:23:10;22.90;21.80
5130;DHT22;2583;50.946;6.954;2023-05-29T12:25:38;23.20;21.50
5130;DHT22;2583;50.946;6.954;2023-05-29T12:28:05;23.40;21.00
5130;DHT22;2583;50.946;6.954;2023-05-29T12:30:37;23.60;20.20
5130;DHT22;2583;50.946;6.954;2023-05-29T12:33:05;23.80;20.00
5130;DHT22;2583;50.946;6.954;2023-05-29T12:35:33;23.90;19.40
5130;DHT22;2583;50.946;6.954;2023-05-29T12:38:07;23.80;18.90
5130;DHT22;2583;50.946;6.954;2023-05-29T12:40:35;24.00;18.60
5130;DHT22;2583;50.946;6.954;2023-05-29T12:43:06;24.10;18.00
5130;DHT22;2583;50.946;6.954;2023-05-29T12:45:33;23.60;18.40
5130;DHT22;2583;50.946;6.954;2023-05-29T12:50:29;23.70;17.80
5130;DHT22;2583;50.946;6.954;2023-05-29T12:53:00;23.70;17.80
5130;DHT22;2583;50.946;6.954;2023-05-29T12:55:29;24.00;17.30
5130;DHT22;2583;50.946;6.954;2023-05-29T12:57:56;24.40;17.00
5130;DHT22;2583;50.946;6.954;2023-05-29T13:00:23;24.90;15.80
5130;DHT22;2583;50.946;6.954;2023-05-29T13:02:50;24.90;15.80
5130;DHT22;2583;50.946;6.954;2023-05-29T13:05:18;25.40;15.10
5130;DHT22;2583;50.946;6.954;2023-05-29T13:07:50;25.90;14.60
5130;DHT22;2583;50.946;6.954;2023-05-29T13:10:18;25.60;13.80
5130;DHT22;2583;50.946;6.954;2023-05-29T13:12:46;25.40;14.10
5130;DHT22;2583;50.946;6.954;2023-05-29T13:15:14;25.50;13.60
5130;DHT22;2583;50.946;6.954;2023-05-29T13:17:41;25.90;13.50
5130;DHT22;2583;50.946;6.954;2023-05-29T13:20:09;25.60;13.10
5130;DHT22;2583;50.946;6.954;2023-05-29T13:22:38;25.60;13.50
5130;DHT22;2583;50.946;6.954;2023-05-29T13:25:06;26.00;12.90
5130;DHT22;2583;50.946;6.954;2023-05-29T13:27:34;26.60;12.20
5130;DHT22;2583;50.946;6.954;2023-05-29T13:30:02;25.70;12.10
5130;DHT22;2583;50.946;6.954;2023-05-29T13:32:29;26.00;12.30
5130;DHT22;2583;50.946;6.954;2023-05-29T13:34:56;25.80;11.30
5130;DHT22;2583;50.946;6.954;2023-05-29T13:37:23;25.80;11.40
5130;DHT22;2583;50.946;6.954;2023-05-29T13:39:50;25.90;11.10
5130;DHT22;2583;50.946;6.954;2023-05-29T13:42:18;26.30;10.70
5130;DHT22;2583;50.946;6.954;2023-05-29T13:44:46;26.40;9.90
5130;DHT22;2583;50.946;6.954;2023-05-29T13:47:13;26.20;10.30
5130;DHT22;2583;50.946;6.954;2023-05-29T13:49:40;26.20;10.60
5130;DHT22;2583;50.946;6.954;2023-05-29T13:52:07;26.70;10.20
5130;DHT22;2583;50.946;6.954;2023-05-29T13:54:34;26.70;9.70
5130;DHT22;2583;50.946;6.954;2023-05-29T13:57:04;26.30;8.90
5130;DHT22;2583;50.946;6.954;2023-05-29T13:59:33;26.50;9.50
5130;DHT22;2583;50.946;6.954;2023-05-29T14:02:00;26.80;9.00
5130;DHT22;2583;50.946;6.954;2023-05-29T14:04:32;27.00;8.80
5130;DHT22;2583;50.946;6.954;2023-05-29T14:06:58;27.50;9.00
5130;DHT22;2583;50.946;6.954;2023-05-29T14:09:25;27.50;8.30
5130;DHT22;2583;50.946;6.954;2023-05-29T14:11:56;27.50;8.30
5130;DHT22;2583;50.946;6.954;2023-05-29T14:14:23;27.30;8.20
5130;DHT22;2583;50.946;6.954;2023-05-29T14:16:50;26.70;8.80
5130;DHT22;2583;50.946;6.954;2023-05-29T14:19:18;26.40;8.90
5130;DHT22;2583;50.946;6.954;2023-05-29T14:21:45;25.80;9.30
5130;DHT22;2583;50.946;6.954;2023-05-29T14:24:12;25.50;10.10
5130;DHT22;2583;50.946;6.954;2023-05-29T14:26:40;24.80;10.60
5130;DHT22;2583;50.946;6.954;2023-05-29T14:29:08;24.10;11.30
5130;DHT22;2583;50.946;6.954;2023-05-29T14:31:43;23.80;12.10
5130;DHT22;2583;50.946;6.954;2023-05-29T14:34:11;23.50;12.40
5130;DHT22;2583;50.946;6.954;2023-05-29T14:36:38;23.20;12.30
5130;DHT22;2583;50.946;6.954;2023-05-29T14:39:06;23.10;13.00
5130;DHT22;2583;50.946;6.954;2023-05-29T14:41:33;23.30;13.00
5130;DHT22;2583;50.946;6.954;2023-05-29T14:44:02;23.40;13.10
5130;DHT22;2583;50.946;6.954;2023-05-29T14:46:29;23.00;13.20
5130;DHT22;2583;50.946;6.954;2023-05-29T14:48:59;23.00;13.60
5130;DHT22;2583;50.946;6.954;2023-05-29T14:51:27;22.80;13.80
5130;DHT22;2583;50.946;6.954;2023-05-29T14:53:53;22.90;14.10
5130;DHT22;2583;50.946;6.954;2023-05-29T14:56:21;23.10;14.00
5130;DHT22;2583;50.946;6.954;2023-05-29T14:58:48;22.90;13.90
5130;DHT22;2583;50.946;6.954;2023-05-29T15:01:18;22.70;14.20
5130;DHT22;2583;50.946;6.954;2023-05-29T15:03:45;22.80;14.60
5130;DHT22;2583;50.946;6.954;2023-05-29T15:06:12;22.70;14.70
5130;DHT22;2583;50.946;6.954;2023-05-29T15:08:40;22.60;14.70
5130;DHT22;2583;50.946;6.954;2023-05-29T15:11:09;22.40;14.80
5130;DHT22;2583;50.946;6.954;2023-05-29T15:13:36;22.50;14.80
5130;DHT22;2583;50.946;6.954;2023-05-29T15:16:02;22.60;14.90
5130;DHT22;2583;50.946;6.954;2023-05-29T15:18:30;22.80;15.00
5130;DHT22;2583;50.946;6.954;2023-05-29T15:20:57;22.80;14.50
5130;DHT22;2583;50.946;6.954;2023-05-29T15:23:25;22.80;14.60
5130;DHT22;2583;50.946;6.954;2023-05-29T15:25:52;22.40;14.90
5130;DHT22;2583;50.946;6.954;2023-05-29T15:28:20;22.60;14.90
5130;DHT22;2583;50.946;6.954;2023-05-29T15:30:47;22.50;14.90
5130;DHT22;2583;50.946;6.954;2023-05-29T15:33:14;22.40;14.90
5130;DHT22;2583;50.946;6.954;2023-05-29T15:35:41;22.50;14.80
5130;DHT22;2583;50.946;6.954;2023-05-29T15:38:09;22.50;14.70
5130;DHT22;2583;50.946;6.954;2023-05-29T15:40:36;22.40;14.70
5130;DHT22;2583;50.946;6.954;2023-05-29T15:43:03;22.40;14.90
5130;DHT22;2583;50.946;6.954;2023-05-29T15:45:30;22.30;14.80
5130;DHT22;2583;50.946;6.954;2023-05-29T15:47:57;22.30;14.90
5130;DHT22;2583;50.946;6.954;2023-05-29T15:50:24;22.10;14.70
5130;DHT22;2583;50.946;6.954;2023-05-29T15:52:51;22.00;15.00
5130;DHT22;2583;50.946;6.954;2023-05-29T15:55:23;21.90;15.00
5130;DHT22;2583;50.946;6.954;2023-05-29T15:57:50;21.90;15.00
5130;DHT22;2583;50.946;6.954;2023-05-29T16:00:17;21.90;15.00
5130;DHT22;2583;50.946;6.954;2023-05-29T16:02:44;21.90;15.10
5130;DHT22;2583;50.946;6.954;2023-05-29T16:05:11;21.80;15.00
5130;DHT22;2583;50.946;6.954;2023-05-29T16:07:38;21.90;15.10
5130;DHT22;2583;50.946;6.954;2023-05-29T16:10:06;21.80;15.40
5130;DHT22;2583;50.946;6.954;2023-05-29T16:12:33;21.70;15.30
5130;DHT22;2583;50.946;6.954;2023-05-29T16:15:00;21.70;15.70
5130;DHT22;2583;50.946;6.954;2023-05-29T16:17:27;21.60;15.70
5130;DHT22;2583;50.946;6.954;2023-05-29T16:19:54;21.70;15.80
5130;DHT22;2583;50.946;6.954;2023-05-29T16:22:23;21.80;16.00
5130;DHT22;2583;50.946;6.954;2023-05-29T16:25:07;21.60;15.70
5130;DHT22;2583;50.946;6.954;2023-05-29T16:27:34;21.60;15.70
5130;DHT22;2583;50.946;6.954;2023-05-29T16:30:01;21.50;15.50